createdAt,value
2018-05-01T00:01:09.425Z,13.60
2018-05-01T00:03:37.054Z,13.50
2018-05-01T00:06:04.710Z,13.50
2018-05-01T00:08:32.324Z,13.40
2018-05-01T00:11:00.711Z,13.40
2018-05-01T00:13:28.362Z,13.40
2018-05-01T00:15:56.751Z,13.40
2018-05-01T00:18:25.133Z,13.30
2018-05-01T00:20:53.492Z,13.30
2018-05-01T00:23:21.122Z,13.40
2018-05-01T00:25:48.716Z,13.30
2018-05-01T00:28:16.336Z,13.30
2018-05-01T00:30:43.925Z,13.30
2018-05-01T00:33:12.295Z,13.30
2018-05-01T00:35:39.922Z,13.30
2018-05-01T00:38:07.540Z,13.30
2018-05-01T00:40:35.916Z,13.30
2018-05-01T00:43:04.322Z,13.30
2018-05-01T00:45:31.949Z,13.20
2018-05-01T00:47:59.574Z,13.20
2018-05-01T00:50:27.164Z,13.20
2018-05-01T00:52:54.758Z,13.20
2018-05-01T00:55:23.167Z,13.20
2018-05-01T00:57:50.778Z,13.20
2018-05-01T01:00:19.153Z,13.20
2018-05-01T01:02:46.707Z,13.20
2018-05-01T01:05:14.328Z,13.20
2018-05-01T01:07:41.956Z,13.20
2018-05-01T01:10:09.584Z,13.20
2018-05-01T01:12:37.174Z,13.20
2018-05-01T01:15:05.528Z,13.20
2018-05-01T01:17:33.151Z,13.20
2018-05-01T01:20:00.750Z,13.20
2018-05-01T01:22:28.344Z,13.20
2018-05-01T01:24:56.862Z,13.20
2018-05-01T01:27:24.453Z,13.20
2018-05-01T01:29:52.071Z,13.20
2018-05-01T01:32:19.675Z,13.20
2018-05-01T01:34:47.297Z,13.20
2018-05-01T01:37:14.864Z,13.20
2018-05-01T01:39:41.960Z,13.20
2018-05-01T01:42:09.817Z,13.10
2018-05-01T01:44:36.883Z,13.10
2018-05-01T01:47:04.795Z,13.10
2018-05-01T01:49:32.131Z,13.10
2018-05-01T01:51:59.241Z,13.10
2018-05-01T01:54:26.334Z,13.10
2018-05-01T01:56:53.450Z,13.10
2018-05-01T01:59:21.561Z,13.10
2018-05-01T02:01:49.688Z,13.10
2018-05-01T02:04:17.553Z,13.10
2018-05-01T02:06:44.680Z,13.00
2018-05-01T02:09:11.788Z,13.00
2018-05-01T02:11:38.886Z,13.00
2018-05-01T02:14:06.022Z,13.00
2018-05-01T02:16:33.107Z,13.00
2018-05-01T02:19:00.990Z,13.00
2018-05-01T02:21:28.170Z,13.00
2018-05-01T02:23:55.288Z,13.00
2018-05-01T02:26:22.392Z,12.90
2018-05-01T02:28:49.499Z,12.90
2018-05-01T02:31:16.595Z,12.90
2018-05-01T02:33:43.712Z,12.90
2018-05-01T02:36:10.843Z,12.80
2018-05-01T02:38:37.972Z,12.80
2018-05-01T02:41:05.833Z,12.80
2018-05-01T02:43:33.235Z,12.80
2018-05-01T02:46:00.340Z,12.80
2018-05-01T02:48:28.204Z,12.70
2018-05-01T02:50:56.085Z,12.70
2018-05-01T02:53:23.223Z,12.70
2018-05-01T02:55:51.083Z,12.60
2018-05-01T02:58:19.000Z,12.60
2018-05-01T03:00:46.069Z,12.60
2018-05-01T03:03:13.169Z,12.60
2018-05-01T03:05:40.299Z,12.60
2018-05-01T03:08:08.198Z,12.60
2018-05-01T03:10:35.308Z,12.60
2018-05-01T03:13:02.408Z,12.60
2018-05-01T03:15:29.535Z,12.60
2018-05-01T03:17:56.650Z,12.50
2018-05-01T03:20:24.547Z,12.60
2018-05-01T03:22:51.721Z,12.60
2018-05-01T03:25:18.992Z,12.60
2018-05-01T03:27:46.112Z,12.60
2018-05-01T03:30:13.205Z,12.60
2018-05-01T03:32:40.495Z,12.60
2018-05-01T03:35:07.553Z,12.60
2018-05-01T03:37:34.692Z,12.60
2018-05-01T03:40:02.596Z,12.50
2018-05-01T03:42:29.741Z,12.50
2018-05-01T03:44:56.844Z,12.50
2018-05-01T03:47:23.993Z,12.50
2018-05-01T03:49:51.884Z,12.50
2018-05-01T03:52:19.805Z,12.50
2018-05-01T03:54:46.931Z,12.50
2018-05-01T03:57:14.055Z,12.40
2018-05-01T03:59:41.187Z,12.40
2018-05-01T04:02:09.269Z,12.40
2018-05-01T04:04:36.381Z,12.40
2018-05-01T04:07:03.481Z,12.40
2018-05-01T04:09:30.595Z,12.30
2018-05-01T04:11:57.663Z,12.30
2018-05-01T04:14:25.553Z,12.20
2018-05-01T04:16:52.634Z,12.20
2018-05-01T04:19:19.761Z,12.20
2018-05-01T04:21:46.853Z,12.10
2018-05-01T04:24:13.995Z,12.10
2018-05-01T04:26:51.808Z,12.10
2018-05-01T04:29:19.700Z,11.90
2018-05-01T04:31:47.559Z,11.70
2018-05-01T04:34:15.453Z,11.60
2018-05-01T04:36:42.628Z,11.60
2018-05-01T04:39:09.795Z,11.60
2018-05-01T04:41:37.676Z,11.50
2018-05-01T04:44:04.823Z,11.50
2018-05-01T04:46:31.934Z,11.50
2018-05-01T04:48:58.978Z,11.50
2018-05-01T04:51:26.133Z,11.40
2018-05-01T04:53:53.199Z,11.40
2018-05-01T04:56:20.319Z,11.30
2018-05-01T04:58:47.417Z,11.20
2018-05-01T05:01:14.530Z,11.20
2018-05-01T05:03:41.670Z,11.10
2018-05-01T05:06:08.811Z,11.00
2018-05-01T05:08:35.931Z,11.00
2018-05-01T05:11:03.810Z,10.80
2018-05-01T05:13:30.934Z,10.80
2018-05-01T05:15:58.028Z,10.80
2018-05-01T05:18:25.146Z,10.80
2018-05-01T05:20:53.483Z,10.70
2018-05-01T05:23:20.815Z,10.70
2018-05-01T05:25:47.907Z,10.70
2018-05-01T05:28:15.052Z,10.60
2018-05-01T05:30:42.938Z,10.60
2018-05-01T05:33:10.048Z,10.60
2018-05-01T05:35:37.327Z,10.60
2018-05-01T05:38:04.447Z,10.50
2018-05-01T05:40:31.528Z,10.50
2018-05-01T05:42:58.716Z,10.50
2018-05-01T05:48:25.004Z,10.60
2018-05-01T05:50:52.117Z,10.60
2018-05-01T05:53:19.205Z,10.60
2018-05-01T05:55:46.273Z,10.60
2018-05-01T05:58:13.486Z,10.60
2018-05-01T06:00:40.588Z,10.60
2018-05-01T06:03:08.470Z,10.50
2018-05-01T06:05:36.916Z,10.40
2018-05-01T06:08:04.024Z,10.40
2018-05-01T06:10:31.138Z,10.50
2018-05-01T06:12:59.016Z,10.40
2018-05-01T06:15:30.982Z,10.40
2018-05-01T06:17:58.103Z,10.40
2018-05-01T06:20:25.966Z,10.40
2018-05-01T06:22:53.078Z,10.40
2018-05-01T06:25:21.190Z,10.30
2018-05-01T06:27:48.298Z,10.30
2018-05-01T06:30:16.444Z,10.30
2018-05-01T06:32:43.526Z,10.40
2018-05-01T06:35:10.636Z,10.40
2018-05-01T06:37:37.754Z,10.40
2018-05-01T06:40:04.882Z,10.40
2018-05-01T06:42:32.117Z,10.50
2018-05-01T06:44:59.218Z,10.40
2018-05-01T06:47:27.338Z,10.40
2018-05-01T06:49:54.458Z,10.40
2018-05-01T06:52:21.564Z,10.50
2018-05-01T06:54:48.788Z,10.50
2018-05-01T06:57:15.894Z,10.60
2018-05-01T06:59:43.843Z,10.70
2018-05-01T07:02:12.147Z,10.70
2018-05-01T07:04:39.268Z,10.80
2018-05-01T07:07:07.186Z,10.90
2018-05-01T07:09:34.564Z,10.80
2018-05-01T07:12:01.726Z,10.90
2018-05-01T07:14:28.858Z,10.90
2018-05-01T07:16:56.332Z,10.90
2018-05-01T07:19:23.469Z,11.00
2018-05-01T07:21:50.661Z,11.00
2018-05-01T07:24:18.646Z,11.20
2018-05-01T07:26:45.740Z,11.20
2018-05-01T07:29:12.847Z,11.20
2018-05-01T07:31:39.992Z,11.30
2018-05-01T07:34:07.073Z,11.20
2018-05-01T07:36:34.224Z,11.10
2018-05-01T07:39:01.383Z,11.10
2018-05-01T07:41:28.505Z,11.10
2018-05-01T07:43:55.622Z,11.20
2018-05-01T07:46:23.513Z,11.10
2018-05-01T07:48:50.627Z,11.10
2018-05-01T07:51:17.727Z,11.10
2018-05-01T07:53:44.817Z,11.10
2018-05-01T07:56:11.926Z,11.00
2018-05-01T07:58:39.086Z,10.90
2018-05-01T08:01:06.211Z,10.80
2018-05-01T08:03:33.345Z,10.70
2018-05-01T08:06:01.213Z,10.50
2018-05-01T08:08:28.334Z,10.50
2018-05-01T08:10:55.436Z,10.50
2018-05-01T08:13:22.568Z,10.50
2018-05-01T08:15:49.642Z,10.50
2018-05-01T08:18:16.770Z,10.50
2018-05-01T08:20:43.909Z,10.50
2018-05-01T08:23:14.046Z,10.50
2018-05-01T08:25:41.146Z,10.50
2018-05-01T08:28:09.062Z,10.30
2018-05-01T08:30:36.209Z,10.30
2018-05-01T08:33:03.272Z,10.40
2018-05-01T08:35:30.720Z,10.40
2018-05-01T08:37:57.817Z,10.60
2018-05-01T08:40:24.968Z,10.80
2018-05-01T08:42:52.071Z,10.80
2018-05-01T08:45:19.339Z,10.80
2018-05-01T08:47:46.401Z,10.70
2018-05-01T08:50:13.474Z,10.70
2018-05-01T08:52:40.575Z,10.90
2018-05-01T08:55:07.659Z,11.30
2018-05-01T08:57:34.783Z,11.60
2018-05-01T09:00:01.932Z,11.80
2018-05-01T09:02:29.063Z,11.90
2018-05-01T09:04:56.153Z,12.00
2018-05-01T09:07:23.260Z,12.00
2018-05-01T09:09:50.380Z,12.10
2018-05-01T09:12:18.248Z,11.80
2018-05-01T09:14:46.454Z,11.40
2018-05-01T09:17:13.569Z,11.40
2018-05-01T09:19:41.453Z,11.10
2018-05-01T09:22:08.558Z,11.10
2018-05-01T09:24:35.736Z,11.00
2018-05-01T09:27:03.650Z,11.40
2018-05-01T09:29:30.740Z,11.40
2018-05-01T09:31:57.832Z,11.70
2018-05-01T09:34:24.952Z,12.00
2018-05-01T09:36:52.862Z,12.30
2018-05-01T09:39:20.027Z,12.30
2018-05-01T09:41:47.113Z,12.30
2018-05-01T09:44:14.842Z,12.10
2018-05-01T09:46:41.974Z,12.10
2018-05-01T09:49:09.098Z,12.00
2018-05-01T09:51:36.203Z,12.00
2018-05-01T09:54:03.817Z,11.90
2018-05-01T09:56:31.522Z,11.80
2018-05-01T09:58:59.163Z,11.80
2018-05-01T10:01:26.805Z,11.80
2018-05-01T10:03:54.588Z,11.80
2018-05-01T10:06:22.161Z,11.90
2018-05-01T10:08:50.333Z,12.00
2018-05-01T10:11:18.738Z,12.50
2018-05-01T10:13:46.359Z,12.50
2018-05-01T10:16:13.925Z,12.80
2018-05-01T10:18:41.465Z,13.00
2018-05-01T10:21:09.108Z,13.40
2018-05-01T10:23:36.769Z,13.70
2018-05-01T10:26:05.147Z,13.90
2018-05-01T10:28:33.559Z,13.70
2018-05-01T10:31:01.181Z,13.70
2018-05-01T10:33:28.799Z,13.90
2018-05-01T10:35:56.399Z,13.90
2018-05-01T10:38:24.873Z,13.90
2018-05-01T10:40:52.490Z,13.90
2018-05-01T10:43:20.167Z,13.70
2018-05-01T10:45:47.840Z,13.80
2018-05-01T10:48:15.429Z,14.40
2018-05-01T10:50:43.053Z,14.50
2018-05-01T10:53:10.777Z,14.50
2018-05-01T10:55:38.373Z,14.40
2018-05-01T10:58:06.280Z,14.40
2018-05-01T11:00:33.925Z,14.20
2018-05-01T11:03:01.790Z,14.20
2018-05-01T11:05:29.341Z,14.00
2018-05-01T11:07:57.061Z,14.00
2018-05-01T11:10:24.750Z,14.40
2018-05-01T11:12:52.381Z,14.50
2018-05-01T11:15:20.721Z,14.20
2018-05-01T11:17:48.358Z,14.20
2018-05-01T11:20:16.221Z,14.20
2018-05-01T11:22:44.281Z,14.30
2018-05-01T11:25:12.066Z,14.50
2018-05-01T11:27:39.711Z,14.80
2018-05-01T11:30:07.409Z,14.90
2018-05-01T11:32:35.034Z,15.30
2018-05-01T11:35:02.718Z,15.60
2018-05-01T11:37:30.343Z,15.70
2018-05-01T11:39:59.571Z,15.90
2018-05-01T11:42:29.515Z,15.70
2018-05-01T11:44:57.541Z,15.60
2018-05-01T11:47:25.187Z,15.50
2018-05-01T11:49:52.849Z,15.50
2018-05-01T11:52:20.456Z,15.30
2018-05-01T11:54:51.863Z,15.40
2018-05-01T11:57:19.691Z,15.40
2018-05-01T11:59:48.263Z,15.50
2018-05-01T12:02:15.883Z,15.50
2018-05-01T12:04:43.465Z,15.70
2018-05-01T12:07:11.067Z,15.80
2018-05-01T12:09:38.699Z,15.50
2018-05-01T12:12:06.365Z,15.50
2018-05-01T12:14:33.980Z,15.20
2018-05-01T12:17:01.598Z,15.50
2018-05-01T12:19:29.228Z,15.50
2018-05-01T12:21:57.604Z,17.40
2018-05-01T12:24:25.975Z,18.10
2018-05-01T12:26:53.560Z,18.10
2018-05-01T12:29:21.684Z,18.90
2018-05-01T12:31:49.488Z,20.50
2018-05-01T12:34:17.874Z,21.60
2018-05-01T12:36:45.582Z,21.60
2018-05-01T12:39:13.133Z,21.50
2018-05-01T12:41:40.709Z,21.40
2018-05-01T12:44:08.327Z,20.90
2018-05-01T12:46:35.925Z,20.20
2018-05-01T12:49:03.776Z,19.50
2018-05-01T12:51:31.374Z,20.30
2018-05-01T12:54:00.494Z,22.20
2018-05-01T12:56:28.884Z,23.30
2018-05-01T12:58:56.536Z,23.20
2018-05-01T13:01:24.911Z,23.80
2018-05-01T13:03:53.226Z,21.90
2018-05-01T13:06:20.843Z,21.90
2018-05-01T13:08:49.180Z,21.00
2018-05-01T13:11:16.776Z,21.00
2018-05-01T13:13:45.137Z,21.70
2018-05-01T13:16:12.750Z,21.60
2018-05-01T13:18:40.532Z,21.10
2018-05-01T13:21:08.138Z,20.50
2018-05-01T13:23:35.775Z,20.50
2018-05-01T13:26:03.390Z,20.70
2018-05-01T13:28:31.053Z,20.90
2018-05-01T13:30:58.662Z,21.10
2018-05-01T13:33:26.176Z,20.90
2018-05-01T13:35:53.726Z,21.00
2018-05-01T13:38:21.996Z,21.40
2018-05-01T13:40:50.279Z,21.20
2018-05-01T13:43:18.540Z,21.50
2018-05-01T13:45:46.850Z,21.00
2018-05-01T13:48:14.392Z,21.00
2018-05-01T13:50:42.732Z,20.70
2018-05-01T13:53:10.267Z,20.60
2018-05-01T13:55:37.808Z,20.40
2018-05-01T13:58:05.340Z,19.50
2018-05-01T14:00:32.872Z,18.70
2018-05-01T14:03:00.420Z,17.90
2018-05-01T14:05:27.925Z,17.80
2018-05-01T14:07:56.293Z,18.30
2018-05-01T14:10:24.679Z,19.60
2018-05-01T14:12:52.298Z,19.60
2018-05-01T14:15:19.868Z,20.70
2018-05-01T14:17:47.453Z,21.20
2018-05-01T14:20:15.799Z,21.00
2018-05-01T14:22:43.427Z,21.00
2018-05-01T14:25:11.065Z,20.80
2018-05-01T14:27:39.462Z,20.60
2018-05-01T14:30:07.125Z,20.60
2018-05-01T14:32:34.698Z,20.30
2018-05-01T14:35:02.277Z,20.00
2018-05-01T14:37:29.845Z,19.40
2018-05-01T14:39:57.458Z,18.60
2018-05-01T14:42:25.030Z,18.70
2018-05-01T14:44:52.661Z,19.30
2018-05-01T14:47:21.045Z,19.90
2018-05-01T14:49:48.815Z,19.90
2018-05-01T14:52:16.455Z,20.40
2018-05-01T14:54:44.095Z,20.30
2018-05-01T14:57:12.475Z,20.00
2018-05-01T14:59:40.081Z,19.90
2018-05-01T15:02:07.694Z,19.30
2018-05-01T15:04:36.205Z,19.40
2018-05-01T15:07:04.608Z,20.50
2018-05-01T15:09:32.155Z,20.50
2018-05-01T15:12:00.554Z,20.80
2018-05-01T15:14:28.141Z,20.80
2018-05-01T15:16:55.764Z,20.90
2018-05-01T15:19:23.533Z,20.70
2018-05-01T15:21:51.078Z,20.50
2018-05-01T15:24:18.710Z,20.50
2018-05-01T15:26:46.345Z,20.20
2018-05-01T15:29:13.944Z,19.90
2018-05-01T15:31:41.568Z,19.60
2018-05-01T15:34:09.141Z,19.70
2018-05-01T15:36:36.893Z,19.90
2018-05-01T15:39:04.499Z,19.70
2018-05-01T15:41:32.915Z,19.50
2018-05-01T15:44:00.525Z,19.50
2018-05-01T15:46:28.173Z,19.30
2018-05-01T15:48:56.459Z,19.00
2018-05-01T15:51:24.027Z,18.80
2018-05-01T15:53:51.693Z,18.70
2018-05-01T15:59:26.287Z,18.20
2018-05-01T16:01:53.863Z,18.10
2018-05-01T16:04:21.485Z,18.00
2018-05-01T16:06:49.114Z,18.10
2018-05-01T16:09:16.751Z,18.00
2018-05-01T16:11:44.387Z,18.10
2018-05-01T16:14:12.076Z,17.90
2018-05-01T16:16:40.852Z,17.50
2018-05-01T16:19:08.706Z,17.30
2018-05-01T16:21:36.425Z,17.10
2018-05-01T16:24:04.862Z,17.10
2018-05-01T16:26:33.050Z,17.00
2018-05-01T16:29:00.674Z,17.00
2018-05-01T16:31:28.364Z,17.00
2018-05-01T16:33:55.994Z,16.90
2018-05-01T16:36:23.600Z,16.70
2018-05-01T16:38:51.218Z,16.80
2018-05-01T16:41:19.004Z,16.70
2018-05-01T16:43:46.616Z,16.60
2018-05-01T16:46:14.978Z,15.90
2018-05-01T16:48:42.608Z,15.90
2018-05-01T16:51:10.241Z,15.60
2018-05-01T16:53:37.828Z,15.60
2018-05-01T16:56:05.483Z,15.50
2018-05-01T16:58:34.715Z,15.40
2018-05-01T17:01:02.417Z,15.40
2018-05-01T17:03:30.210Z,15.40
2018-05-01T17:05:59.360Z,15.40
2018-05-01T17:08:26.936Z,15.40
2018-05-01T17:10:54.556Z,15.40
2018-05-01T17:13:23.011Z,15.10
2018-05-01T17:15:51.625Z,15.10
2018-05-01T17:18:20.028Z,14.80
2018-05-01T17:20:47.628Z,14.80
2018-05-01T17:23:15.220Z,14.80
2018-05-01T17:25:42.860Z,14.70
2018-05-01T17:28:10.580Z,14.60
2018-05-01T17:30:38.162Z,14.30
2018-05-01T17:33:06.863Z,14.30
2018-05-01T17:35:34.501Z,14.30
2018-05-01T17:38:02.874Z,14.20
2018-05-01T17:40:30.484Z,14.20
2018-05-01T17:42:59.419Z,14.10
2018-05-01T17:45:27.253Z,14.10
2018-05-01T17:47:54.826Z,14.00
2018-05-01T17:50:22.440Z,13.90
2018-05-01T17:52:50.091Z,13.90
2018-05-01T17:55:17.758Z,13.80
2018-05-01T17:57:45.379Z,13.80
2018-05-01T18:00:12.998Z,13.60
2018-05-01T18:02:40.832Z,13.60
2018-05-01T18:05:08.453Z,13.40
2018-05-01T18:07:37.636Z,13.30
2018-05-01T18:10:05.242Z,13.30
2018-05-01T18:12:33.719Z,13.20
2018-05-01T18:15:01.817Z,13.20
2018-05-01T18:17:31.438Z,13.20
2018-05-01T18:19:59.075Z,13.10
2018-05-01T18:22:27.710Z,13.00
2018-05-01T18:24:55.833Z,12.90
2018-05-01T18:27:24.208Z,12.80
2018-05-01T18:29:51.832Z,12.70
2018-05-01T18:32:21.417Z,12.80
2018-05-01T18:34:51.746Z,12.60
2018-05-01T18:37:21.134Z,12.60
2018-05-01T18:39:48.768Z,12.60
2018-05-01T18:42:17.894Z,12.40
2018-05-01T18:44:49.964Z,12.40
2018-05-01T18:47:18.320Z,12.40
2018-05-01T18:49:46.929Z,12.30
2018-05-01T18:52:32.335Z,12.30
2018-05-01T18:55:00.732Z,12.20
2018-05-01T18:57:28.393Z,12.20
2018-05-01T18:59:55.993Z,12.20
2018-05-01T19:02:23.795Z,12.20
2018-05-01T19:04:51.514Z,12.20
2018-05-01T19:07:19.210Z,12.10
2018-05-01T19:09:46.886Z,12.10
2018-05-01T19:12:15.416Z,12.10
2018-05-01T19:14:43.144Z,12.10
2018-05-01T19:17:10.848Z,12.10
2018-05-01T19:19:38.484Z,12.10
2018-05-01T19:22:06.092Z,12.00
2018-05-01T19:24:33.748Z,12.00
2018-05-01T19:27:01.376Z,12.00
2018-05-01T19:29:29.146Z,12.00
2018-05-01T19:31:56.777Z,11.90
2018-05-01T19:34:24.401Z,11.90
2018-05-01T19:36:52.036Z,11.90
2018-05-01T19:39:19.674Z,11.90
2018-05-01T19:41:47.282Z,11.90
2018-05-01T19:44:14.928Z,11.80
2018-05-01T19:46:42.553Z,11.80
2018-05-01T19:49:10.188Z,11.80
2018-05-01T19:51:37.877Z,11.80
2018-05-01T19:54:05.458Z,11.80
2018-05-01T19:56:33.127Z,11.80
2018-05-01T19:59:00.664Z,11.80
2018-05-01T20:01:28.315Z,11.70
2018-05-01T20:03:56.827Z,11.70
2018-05-01T20:06:24.426Z,11.60
2018-05-01T20:08:52.073Z,11.60
2018-05-01T20:11:19.649Z,11.50
2018-05-01T20:13:47.249Z,11.40
2018-05-01T20:16:14.881Z,11.30
2018-05-01T20:18:42.452Z,11.30
2018-05-01T20:21:10.805Z,11.20
2018-05-01T20:23:38.460Z,11.20
2018-05-01T20:26:06.111Z,11.10
2018-05-01T20:28:33.711Z,11.10
2018-05-01T20:31:05.669Z,10.90
2018-05-01T20:33:34.047Z,10.90
2018-05-01T20:36:01.628Z,10.80
2018-05-01T20:38:29.262Z,10.80
2018-05-01T20:40:57.621Z,10.60
2018-05-01T20:43:25.257Z,10.70
2018-05-01T20:45:53.847Z,10.60
2018-05-01T20:48:21.425Z,10.50
2018-05-01T20:50:49.001Z,10.50
2018-05-01T20:53:16.630Z,10.40
2018-05-01T20:55:44.209Z,10.30
2018-05-01T20:58:11.818Z,10.30
2018-05-01T21:00:39.390Z,10.20
2018-05-01T21:03:07.008Z,10.10
2018-05-01T21:05:34.655Z,10.10
2018-05-01T21:08:02.261Z,10.00
2018-05-01T21:10:29.937Z,10.00
2018-05-01T21:12:57.497Z,9.90
2018-05-01T21:15:25.129Z,9.90
2018-05-01T21:17:53.459Z,9.80
2018-05-01T21:20:21.062Z,9.80
2018-05-01T21:22:48.671Z,9.80
2018-05-01T21:25:16.237Z,9.70
2018-05-01T21:27:45.265Z,9.60
2018-05-01T21:30:12.871Z,9.60
2018-05-01T21:32:40.467Z,9.50
2018-05-01T21:35:08.089Z,9.50
2018-05-01T21:37:35.715Z,9.40
2018-05-01T21:40:04.135Z,9.30
2018-05-01T21:42:31.738Z,9.30
2018-05-01T21:44:59.361Z,9.30
2018-05-01T21:47:28.415Z,9.20
2018-05-01T21:49:56.837Z,9.20
2018-05-01T21:52:25.522Z,9.20
2018-05-01T21:54:53.195Z,9.10
2018-05-01T21:57:20.910Z,9.10
2018-05-01T21:59:49.163Z,9.00
2018-05-01T22:02:16.772Z,9.00
2018-05-01T22:04:44.387Z,9.00
2018-05-01T22:07:12.725Z,8.90
2018-05-01T22:09:40.323Z,8.90
2018-05-01T22:12:08.691Z,8.80
2018-05-01T22:14:36.291Z,8.80
2018-05-01T22:17:03.925Z,8.80
2018-05-01T22:19:31.513Z,8.70
2018-05-01T22:21:59.887Z,8.60
2018-05-01T22:24:28.231Z,8.60
2018-05-01T22:26:55.826Z,8.50
2018-05-01T22:29:24.186Z,8.40
2018-05-01T22:31:51.791Z,8.40
2018-05-01T22:34:19.404Z,8.40
2018-05-01T22:36:47.009Z,8.40
2018-05-01T22:39:14.656Z,8.40
2018-05-01T22:41:42.290Z,8.30
2018-05-01T22:44:09.907Z,8.20
2018-05-01T22:46:37.542Z,8.20
2018-05-01T22:49:05.892Z,8.00
2018-05-01T22:51:33.470Z,8.00
2018-05-01T22:54:01.856Z,7.90
2018-05-01T22:56:29.449Z,7.90
2018-05-01T22:58:57.064Z,7.90
2018-05-01T23:01:25.454Z,7.80
2018-05-01T23:03:53.804Z,7.70
2018-05-01T23:06:21.434Z,7.70
2018-05-01T23:08:49.065Z,7.70
2018-05-01T23:11:16.660Z,7.60
2018-05-01T23:13:44.321Z,7.50
2018-05-01T23:16:11.914Z,7.50
2018-05-01T23:18:39.547Z,7.50
2018-05-01T23:21:07.146Z,7.50
2018-05-01T23:23:34.739Z,7.50
2018-05-01T23:26:02.339Z,7.50
2018-05-01T23:28:29.911Z,7.40
2018-05-01T23:30:57.525Z,7.40
2018-05-01T23:33:25.095Z,7.40
2018-05-01T23:35:52.638Z,7.40
2018-05-01T23:38:20.242Z,7.40
2018-05-01T23:40:47.875Z,7.30
2018-05-01T23:43:15.472Z,7.30
2018-05-01T23:45:43.090Z,7.30
2018-05-01T23:48:10.679Z,7.20
2018-05-01T23:50:38.258Z,7.20
2018-05-01T23:53:05.822Z,7.20
2018-05-01T23:55:33.604Z,7.10
2018-05-01T23:58:02.902Z,7.00
